TimeCST,TemperatureF,Dew PointF,Humidity,Sea Level PressureIn,VisibilityMPH,Wind Direction,Wind SpeedMPH,Gust SpeedMPH,PrecipitationIn,Events,Conditions,WindDirDegrees,DateUTC
12:54 AM,32.0,28.0,85,29.99,5.0,SSE,8.1,-,N/A,,Clear,150,2013-02-07 06:54:00
1:54 AM,32.0,28.9,88,29.99,5.0,SSE,5.8,-,N/A,,Clear,150,2013-02-07 07:54:00
2:54 AM,30.9,28.0,89,29.99,4.0,SSE,5.8,-,N/A,,Scattered Clouds,150,2013-02-07 08:54:00
3:54 AM,30.9,28.0,89,29.98,4.0,East,5.8,-,N/A,,Overcast,100,2013-02-07 09:54:00
4:50 AM,30.2,26.6,86,29.92,2.5,East,4.6,-,N/A,,Partly Cloudy,80,2013-02-07 10:50:00
4:54 AM,30.0,27.0,88,29.97,2.0,East,5.8,-,N/A,,Clear,80,2013-02-07 10:54:00
5:09 AM,28.4,26.6,93,29.93,1.5,NNE,5.8,-,N/A,,Clear,20,2013-02-07 11:09:00
5:23 AM,28.4,26.6,93,29.94,1.2,NNE,6.9,-,N/A,,Partly Cloudy,20,2013-02-07 11:23:00
5:30 AM,28.4,26.6,93,29.94,0.8,NNE,8.1,-,N/A,,Mist,30,2013-02-07 11:30:00
5:45 AM,28.4,26.6,93,29.94,1.5,NE,6.9,-,N/A,,Overcast,40,2013-02-07 11:45:00
5:54 AM,28.9,26.1,89,29.99,1.5,NE,8.1,-,N/A,,Overcast,40,2013-02-07 11:54:00
6:35 AM,28.4,26.6,93,29.95,2.5,NE,9.2,-,N/A,,Overcast,40,2013-02-07 12:35:00
6:54 AM,28.9,26.1,89,30.01,2.5,NNE,9.2,-,N/A,,Overcast,30,2013-02-07 12:54:00
7:04 AM,28.4,26.6,93,29.95,1.5,NNE,10.4,-,N/A,,Overcast,20,2013-02-07 13:04:00
7:54 AM,28.9,25.0,85,30.02,1.5,NE,9.2,-,N/A,,Overcast,40,2013-02-07 13:54:00
8:25 AM,28.4,24.8,86,29.97,1.5,NNE,9.2,-,N/A,,Overcast,30,2013-02-07 14:25:00
8:39 AM,28.4,24.8,86,29.98,2.0,NNE,6.9,-,N/A,,Overcast,20,2013-02-07 14:39:00
8:54 AM,28.9,25.0,85,30.04,2.0,NNE,9.2,-,N/A,,Overcast,20,2013-02-07 14:54:00
9:54 AM,28.0,24.1,85,30.05,1.8,North,15.0,-,N/A,,Overcast,360,2013-02-07 15:54:00
10:11 AM,26.6,24.8,93,30.00,1.5,North,12.7,-,N/A,,Overcast,360,2013-02-07 16:11:00
10:21 AM,26.6,24.8,93,30.00,1.2,North,13.8,-,N/A,,Overcast,360,2013-02-07 16:21:00
10:45 AM,26.6,24.8,93,30.00,0.8,North,10.4,-,N/A,,Overcast,10,2013-02-07 16:45:00
10:54 AM,27.0,24.1,89,30.06,0.8,NNE,10.4,-,N/A,,Overcast,20,2013-02-07 16:54:00
11:50 AM,26.6,24.8,93,30.00,0.2,North,11.5,-,N/A,Fog,Light Freezing Fog,10,2013-02-07 17:50:00
11:54 AM,27.0,24.1,89,30.05,0.2,North,11.5,-,N/A,Fog,Light Freezing Fog,360,2013-02-07 17:54:00
12:17 PM,26.6,24.8,93,29.99,0.2,North,11.5,-,0.00,Fog,Light Freezing Fog,360,2013-02-07 18:17:00
12:39 PM,26.6,24.8,93,29.99,0.2,North,13.8,-,0.00,Fog,Light Freezing Fog,360,2013-02-07 18:39:00
12:54 PM,27.0,24.1,89,30.05,0.5,North,13.8,-,0.00,Fog,Light Freezing Fog,360,2013-02-07 18:54:00
1:54 PM,27.0,24.1,89,30.05,0.8,North,13.8,-,0.00,Rain,Light Freezing Rain,360,2013-02-07 19:54:00
2:21 PM,26.6,24.8,93,30.00,1.0,North,13.8,-,0.00,Rain,Light Freezing Rain,360,2013-02-07 20:21:00
2:51 PM,26.6,24.8,93,30.00,1.2,North,19.6,-,0.00,,Overcast,360,2013-02-07 20:51:00
2:54 PM,26.1,23.0,88,30.06,1.5,North,17.3,-,0.00,,Overcast,360,2013-02-07 20:54:00
3:14 PM,26.6,23.0,86,30.01,1.8,North,18.4,23.0,0.00,Rain,Light Freezing Rain,360,2013-02-07 21:14:00
3:24 PM,26.6,23.0,86,30.01,2.0,North,18.4,-,0.00,Rain,Light Freezing Rain,360,2013-02-07 21:24:00
3:54 PM,26.1,23.0,88,30.07,2.0,North,16.1,25.3,0.00,Rain,Light Freezing Rain,10,2013-02-07 21:54:00
4:07 PM,26.6,23.0,86,30.03,1.8,North,15.0,-,0.00,Rain,Light Freezing Rain,360,2013-02-07 22:07:00
4:38 PM,26.6,23.0,86,30.04,1.2,North,17.3,-,0.00,Snow,Light Snow,360,2013-02-07 22:38:00
4:54 PM,26.1,23.0,88,30.11,1.5,North,16.1,-,0.00,Snow,Light Snow,360,2013-02-07 22:54:00
5:14 PM,26.6,23.0,86,30.06,2.0,North,13.8,-,0.00,,Overcast,350,2013-02-07 23:14:00
5:26 PM,26.6,21.2,80,30.07,1.8,North,13.8,-,0.00,Snow,Light Snow,360,2013-02-07 23:26:00
5:39 PM,24.8,21.2,86,30.08,2.0,North,16.1,-,0.00,Snow,Light Snow,350,2013-02-07 23:39:00
5:54 PM,25.0,21.9,88,30.14,2.0,North,15.0,-,0.00,,Overcast,350,2013-02-07 23:54:00
6:01 PM,24.8,21.2,86,30.09,3.0,North,17.3,-,0.00,Rain,Light Freezing Rain,350,2013-02-08 00:01:00
6:13 PM,24.8,21.2,86,30.09,2.5,North,15.0,-,0.00,Snow,Light Snow,350,2013-02-08 00:13:00
6:31 PM,24.8,21.2,86,30.10,3.0,North,16.1,-,0.00,Snow,Light Snow,360,2013-02-08 00:31:00
6:54 PM,25.0,21.9,88,30.16,3.0,North,17.3,-,0.00,,Overcast,360,2013-02-08 00:54:00
7:23 PM,24.8,21.2,86,30.11,7.0,North,12.7,-,0.00,Snow,Light Snow,10,2013-02-08 01:23:00
7:54 PM,25.0,21.0,85,30.18,7.0,North,13.8,-,0.00,,Overcast,360,2013-02-08 01:54:00
8:42 PM,24.8,21.2,86,30.14,10.0,North,12.7,-,N/A,,Overcast,360,2013-02-08 02:42:00
8:54 PM,25.0,19.9,81,30.20,10.0,North,12.7,-,N/A,,Overcast,360,2013-02-08 02:54:00
9:54 PM,25.0,19.9,81,30.21,10.0,North,12.7,-,N/A,,Overcast,360,2013-02-08 03:54:00
10:54 PM,25.0,19.9,81,30.23,10.0,North,11.5,-,N/A,,Overcast,10,2013-02-08 04:54:00
11:54 PM,25.0,19.0,78,30.25,10.0,North,9.2,-,N/A,,Overcast,10,2013-02-08 05:54:00